Terminal Aerodrome Forecast
Issued by NWS

Home | Current Version | Previous Version | Text Only | Print | Product List | Glossary On
Versions: 1 2 3 4 5 6 7 8 9 10 11 12
000
FTUS43 KILX 021737
TAFBMI
TAF
KBMI 021737Z 0218/0318 22014G20KT P6SM SCT090
     FM030000 22012KT P6SM SCT090
     FM030400 23012KT P6SM VCTS SCT050CB BKN090
     FM031100 32008KT P6SM SCT090=

USA.gov is the U.S. government's official web portal to all federal, state and local government web resources and services.